Time;durP1;ratioP1;P1;durP2;ratioP2;P2;SDS_P1;SDS_P2;PMS_P1;PMS_P2;Temp;Humidity;BMP_temperature;BMP_pressure;BME280_temperature;BME280_humidity;BME280_pressure;Samples;Min_cycle;Max_cycle;Signal;HPM_P1;HPM_P2
2022/11/01 00:00:01;;;;;;;;;;;15.10;94.70;;;;;;4985790;28;19920;-66
2022/11/01 00:02:26;;;;;;;;;;;15.10;94.70;;;;;;4986423;28;20512;-66
2022/11/01 00:04:52;;;;;;;;;;;15.10;94.70;;;;;;4985475;28;19935;-66
2022/11/01 00:07:17;;;;;;;;;;;15.10;94.70;;;;;;4986245;28;19925;-67
2022/11/01 00:09:42;;;;;;;;;;;15.10;94.70;;;;;;4973854;28;20654;-67
2022/11/01 00:12:08;;;;;;;;;;;15.10;94.70;;;;;;4967231;28;19914;-67
2022/11/01 00:14:33;;;;;;;;;;;15.10;94.70;;;;;;4975174;28;19914;-67
2022/11/01 00:16:59;;;;;;;;;;;15.10;94.70;;;;;;4984199;28;19976;-66
2022/11/01 00:19:24;;;;;;;;;;;15.10;94.60;;;;;;4985934;28;20010;-66
2022/11/01 00:21:50;;;;;;;;;;;15.10;94.70;;;;;;4985440;28;19920;-67
2022/11/01 00:24:15;;;;;;;;;;;15.20;94.60;;;;;;4985904;28;19909;-67
2022/11/01 00:26:41;;;;;;;;;;;15.20;94.60;;;;;;4985989;28;20012;-67
2022/11/01 00:29:06;;;;;;;;;;;15.20;94.60;;;;;;4985994;28;19914;-67
2022/11/01 00:31:32;;;;;;;;;;;15.20;94.60;;;;;;4984448;28;19918;-67
2022/11/01 00:34:02;;;;;;;;;;;15.20;94.60;;;;;;4985666;28;19917;-67
2022/11/01 00:36:27;;;;;;;;;;;15.20;94.60;;;;;;4985100;28;19914;-67
2022/11/01 00:38:53;;;;;;;;;;;15.20;94.60;;;;;;4983901;28;20640;-66
2022/11/01 00:41:20;;;;;;;;;;;15.20;94.70;;;;;;4983991;28;19914;-67
2022/11/01 00:43:46;;;;;;;;;;;15.20;94.60;;;;;;4988567;28;19968;-67
2022/11/01 00:46:11;;;;;;;;;;;15.20;94.70;;;;;;5001597;28;20323;-66
2022/11/01 00:48:36;;;;;;;;;;;15.20;94.70;;;;;;4986487;28;19920;-67
2022/11/01 00:51:02;;;;;;;;;;;15.20;94.60;;;;;;4985877;28;19914;-67
2022/11/01 00:53:27;;;;;;;;;;;15.20;94.60;;;;;;4984283;28;20612;-67
2022/11/01 00:55:58;;;;;;;;;;;15.20;94.70;;;;;;4985981;28;20291;-67
2022/11/01 00:58:23;;;;;;;;;;;15.20;94.70;;;;;;4985908;28;19913;-67
2022/11/01 01:00:49;;;;;;;;;;;15.20;94.70;;;;;;4985482;28;19949;-66
2022/11/01 01:03:14;;;;;;;;;;;15.20;94.70;;;;;;4985987;28;20698;-67
2022/11/01 01:05:40;;;;;;;;;;;15.20;94.70;;;;;;4985159;28;19961;-67
2022/11/01 01:08:05;;;;;;;;;;;15.20;94.70;;;;;;4985608;28;19968;-66
2022/11/01 01:10:31;;;;;;;;;;;15.20;94.70;;;;;;4984216;28;19922;-67
2022/11/01 01:12:56;;;;;;;;;;;15.20;94.80;;;;;;4983848;28;19913;-67
2022/11/01 01:15:22;;;;;;;;;;;15.20;94.90;;;;;;4984877;28;20550;-67
2022/11/01 01:17:47;;;;;;;;;;;15.20;94.80;;;;;;4985269;28;20003;-67
2022/11/01 01:20:13;;;;;;;;;;;15.20;94.90;;;;;;4985274;28;19918;-68
2022/11/01 01:22:39;;;;;;;;;;;15.10;94.90;;;;;;4985550;28;19925;-67
2022/11/01 01:25:04;;;;;;;;;;;15.10;95.00;;;;;;4985069;28;19976;-67
2022/11/01 01:27:30;;;;;;;;;;;15.10;95.00;;;;;;4984012;28;19914;-67
2022/11/01 01:29:55;;;;;;;;;;;15.10;95.10;;;;;;4984917;28;19918;-67
2022/11/01 01:32:22;;;;;;;;;;;15.10;95.20;;;;;;4985097;28;19913;-67
2022/11/01 01:34:47;;;;;;;;;;;15.10;95.20;;;;;;4985315;28;19937;-67
2022/11/01 01:37:16;;;;;;;;;;;15.10;95.30;;;;;;4985135;28;19965;-67
2022/11/01 01:39:41;;;;;;;;;;;15.10;95.30;;;;;;4984912;28;20451;-67
2022/11/01 01:42:16;;;;;;;;;;;15.10;95.30;;;;;;4984867;28;19910;-66
2022/11/01 01:44:50;;;;;;;;;;;15.10;95.30;;;;;;4985377;28;19918;-67
2022/11/01 01:47:16;;;;;;;;;;;15.10;95.30;;;;;;4984906;28;19921;-67
2022/11/01 01:49:41;;;;;;;;;;;15.10;95.20;;;;;;4984082;28;20486;-66
2022/11/01 01:52:07;;;;;;;;;;;15.10;95.30;;;;;;4984981;28;19913;-66
2022/11/01 01:54:33;;;;;;;;;;;15.10;95.30;;;;;;4986712;28;19914;-66
2022/11/01 01:56:58;;;;;;;;;;;15.10;95.30;;;;;;4988363;28;20675;-66
2022/11/01 01:59:24;;;;;;;;;;;15.00;95.20;;;;;;4987838;28;20637;-67
2022/11/01 02:01:50;;;;;;;;;;;15.10;95.20;;;;;;4988675;28;19929;-66
2022/11/01 02:04:20;;;;;;;;;;;15.10;95.20;;;;;;4988421;28;19921;-66
2022/11/01 02:06:46;;;;;;;;;;;15.00;95.20;;;;;;4989476;28;19952;-67
2022/11/01 02:09:13;;;;;;;;;;;15.00;95.20;;;;;;4988458;28;20405;-66
2022/11/01 02:11:39;;;;;;;;;;;15.10;95.20;;;;;;4988435;28;20016;-67
2022/11/01 02:14:04;;;;;;;;;;;15.10;95.30;;;;;;4987718;28;20470;-67
2022/11/01 02:16:36;;;;;;;;;;;15.10;95.20;;;;;;4986812;28;19964;-67
2022/11/01 02:19:09;;;;;;;;;;;15.10;95.20;;;;;;4986112;28;20032;-66
2022/11/01 02:21:38;;;;;;;;;;;15.10;95.20;;;;;;4986222;28;20785;-66
2022/11/01 02:24:12;;;;;;;;;;;15.00;95.20;;;;;;4988108;28;19952;-67
2022/11/01 02:26:46;;;;;;;;;;;15.00;95.10;;;;;;4987900;28;19921;-68
2022/11/01 02:29:14;;;;;;;;;;;15.00;95.10;;;;;;4987784;28;19914;-66
2022/11/01 02:31:39;;;;;;;;;;;15.00;95.10;;;;;;4987198;28;19957;-67
2022/11/01 02:34:17;;;;;;;;;;;15.10;95.20;;;;;;4988209;28;19995;-67
2022/11/01 02:36:49;;;;;;;;;;;15.10;95.20;;;;;;4988487;28;19913;-67
2022/11/01 02:39:14;;;;;;;;;;;15.10;95.20;;;;;;4987893;28;19936;-69
2022/11/01 02:41:49;;;;;;;;;;;15.10;95.20;;;;;;4986752;28;19914;-67
2022/11/01 02:44:17;;;;;;;;;;;15.10;95.20;;;;;;4987970;28;19910;-67
2022/11/01 02:47:02;;;;;;;;;;;15.00;95.20;;;;;;4987388;28;20607;-67
2022/11/01 02:49:31;;;;;;;;;;;15.00;95.20;;;;;;4987910;28;20271;-68
2022/11/01 02:51:58;;;;;;;;;;;15.00;95.20;;;;;;4987694;28;19914;-67
2022/11/01 02:54:30;;;;;;;;;;;15.00;95.20;;;;;;4988305;28;19914;-67
2022/11/01 02:56:58;;;;;;;;;;;15.00;95.20;;;;;;4988048;28;19914;-67
2022/11/01 02:59:24;;;;;;;;;;;15.00;95.20;;;;;;4987892;28;19914;-67
2022/11/01 03:01:52;;;;;;;;;;;15.00;95.30;;;;;;4987544;28;19956;-67
2022/11/01 03:04:17;;;;;;;;;;;15.00;95.40;;;;;;4985997;28;19914;-67
2022/11/01 03:06:48;;;;;;;;;;;15.00;95.30;;;;;;4987072;28;19928;-67
2022/11/01 03:09:13;;;;;;;;;;;15.00;95.40;;;;;;4987239;28;19922;-67
2022/11/01 03:11:45;;;;;;;;;;;15.00;95.20;;;;;;4987778;28;19918;-68
2022/11/01 03:14:11;;;;;;;;;;;15.00;95.30;;;;;;4987905;28;19914;-67
2022/11/01 03:16:45;;;;;;;;;;;15.00;95.40;;;;;;4987278;28;19921;-67
2022/11/01 03:19:11;;;;;;;;;;;15.00;95.50;;;;;;4986462;28;19910;-67
2022/11/01 03:21:39;;;;;;;;;;;15.00;95.40;;;;;;4985907;28;19917;-67
2022/11/01 03:24:21;;;;;;;;;;;15.00;95.40;;;;;;4986939;28;19920;-67
2022/11/01 03:26:52;;;;;;;;;;;15.00;95.40;;;;;;4987118;28;19914;-67
2022/11/01 03:29:20;;;;;;;;;;;15.00;95.40;;;;;;4986909;28;19953;-67
2022/11/01 03:31:47;;;;;;;;;;;15.00;95.40;;;;;;4986848;28;19949;-67
2022/11/01 03:34:14;;;;;;;;;;;14.90;95.40;;;;;;4986556;28;19910;-67
2022/11/01 03:36:44;;;;;;;;;;;14.90;95.50;;;;;;4985913;28;19921;-67
2022/11/01 03:39:27;;;;;;;;;;;15.00;95.50;;;;;;4986641;28;20359;-67
2022/11/01 03:41:55;;;;;;;;;;;15.00;95.50;;;;;;4985238;28;19940;-68
2022/11/01 03:44:21;;;;;;;;;;;14.90;95.50;;;;;;4983033;28;19918;-67
2022/11/01 03:46:48;;;;;;;;;;;14.90;95.40;;;;;;4994163;28;19914;-67
2022/11/01 03:49:17;;;;;;;;;;;14.90;95.40;;;;;;4996848;28;19967;-67
2022/11/01 03:51:42;;;;;;;;;;;14.90;95.40;;;;;;4984702;28;19917;-68
2022/11/01 03:54:09;;;;;;;;;;;14.90;95.40;;;;;;4985286;28;20489;-67
2022/11/01 03:56:36;;;;;;;;;;;14.90;95.40;;;;;;4986051;28;19918;-67
2022/11/01 03:59:01;;;;;;;;;;;14.90;95.40;;;;;;4987151;28;19945;-67
2022/11/01 04:01:27;;;;;;;;;;;14.90;95.40;;;;;;4986308;28;19968;-67
2022/11/01 04:03:52;;;;;;;;;;;14.90;95.50;;;;;;4986016;28;20353;-68
2022/11/01 04:06:18;;;;;;;;;;;14.90;95.40;;;;;;4984542;28;19914;-67
2022/11/01 04:08:43;;;;;;;;;;;14.90;95.40;;;;;;4981542;28;19917;-67
2022/11/01 04:11:09;;;;;;;;;;;14.90;95.40;;;;;;4985082;28;20016;-67
2022/11/01 04:13:34;;;;;;;;;;;14.90;95.50;;;;;;4985766;28;19922;-67
2022/11/01 04:21:30;;;;;;;;;;;14.90;95.50;;;;;;4986008;28;20002;-67
2022/11/01 04:23:55;;;;;;;;;;;15.00;95.40;;;;;;4985966;28;19921;-67
2022/11/01 04:26:21;;;;;;;;;;;14.90;95.40;;;;;;4985252;28;20256;-67
2022/11/01 04:28:56;;;;;;;;;;;14.90;95.40;;;;;;4985969;28;19914;-67
2022/11/01 04:31:24;;;;;;;;;;;14.90;95.40;;;;;;4985583;28;20292;-67
2022/11/01 04:33:50;;;;;;;;;;;14.90;95.40;;;;;;4986218;28;20012;-68
2022/11/01 04:36:16;;;;;;;;;;;14.90;95.30;;;;;;4986506;28;20001;-67
2022/11/01 04:38:41;;;;;;;;;;;15.00;95.40;;;;;;4985871;28;19914;-67
2022/11/01 04:41:07;;;;;;;;;;;15.00;95.40;;;;;;4985669;28;19929;-68
2022/11/01 04:43:32;;;;;;;;;;;15.00;95.40;;;;;;4984948;28;20033;-67
2022/11/01 04:45:57;;;;;;;;;;;15.00;95.40;;;;;;4984972;28;20338;-67
2022/11/01 04:48:23;;;;;;;;;;;15.00;95.40;;;;;;4985524;28;19964;-67
2022/11/01 04:50:49;;;;;;;;;;;15.00;95.40;;;;;;4985113;28;19921;-68
2022/11/01 04:53:14;;;;;;;;;;;15.00;95.40;;;;;;4984357;28;20422;-67
2022/11/01 04:55:40;;;;;;;;;;;15.00;95.40;;;;;;4985626;28;19918;-68
2022/11/01 04:58:05;;;;;;;;;;;15.00;95.40;;;;;;4984985;28;19918;-67
2022/11/01 05:00:33;;;;;;;;;;;15.00;95.40;;;;;;4984937;28;19914;-68
2022/11/01 05:03:00;;;;;;;;;;;15.00;95.40;;;;;;4985389;28;19937;-67
2022/11/01 05:05:25;;;;;;;;;;;15.00;95.50;;;;;;4984714;28;19922;-67
2022/11/01 05:07:57;;;;;;;;;;;15.00;95.50;;;;;;4985423;28;20599;-67
2022/11/01 05:10:23;;;;;;;;;;;15.00;95.40;;;;;;4986042;28;19999;-67
2022/11/01 05:12:48;;;;;;;;;;;15.00;95.40;;;;;;4985684;28;19918;-68
2022/11/01 05:15:14;;;;;;;;;;;15.00;95.40;;;;;;4985051;28;19993;-67
2022/11/01 05:17:40;;;;;;;;;;;15.00;95.50;;;;;;4985691;28;20594;-67
2022/11/01 05:20:06;;;;;;;;;;;15.00;95.40;;;;;;4984927;28;20626;-67
2022/11/01 05:22:33;;;;;;;;;;;15.00;95.40;;;;;;4984196;28;20307;-67
2022/11/01 05:24:59;;;;;;;;;;;15.00;95.50;;;;;;4985199;28;20101;-67
2022/11/01 05:27:24;;;;;;;;;;;15.00;95.40;;;;;;4984954;28;19992;-67
2022/11/01 05:29:50;;;;;;;;;;;15.00;95.40;;;;;;4987286;28;20700;-67
2022/11/01 05:32:15;;;;;;;;;;;15.00;95.40;;;;;;4988661;28;19928;-67
2022/11/01 05:34:40;;;;;;;;;;;15.00;95.40;;;;;;4989166;28;19929;-67
2022/11/01 05:37:06;;;;;;;;;;;15.00;95.40;;;;;;4989320;28;19914;-67
2022/11/01 05:39:31;;;;;;;;;;;15.00;95.50;;;;;;4989164;28;19913;-67
2022/11/01 05:41:57;;;;;;;;;;;15.00;95.50;;;;;;4990376;28;20382;-67
2022/11/01 05:44:22;;;;;;;;;;;15.00;95.50;;;;;;5008588;28;19913;-68
2022/11/01 05:46:48;;;;;;;;;;;15.00;95.50;;;;;;4988126;28;19917;-68
2022/11/01 05:49:13;;;;;;;;;;;15.10;95.50;;;;;;4988035;28;20529;-67
2022/11/01 05:51:39;;;;;;;;;;;15.00;95.50;;;;;;4987323;28;19918;-67
2022/11/01 05:54:04;;;;;;;;;;;15.00;95.50;;;;;;4988450;28;19910;-68
2022/11/01 05:56:30;;;;;;;;;;;15.00;95.50;;;;;;4988486;28;19914;-67
2022/11/01 05:58:55;;;;;;;;;;;15.00;95.90;;;;;;4987851;28;19918;-67
2022/11/01 06:01:21;;;;;;;;;;;15.00;95.60;;;;;;4987781;28;20057;-68
2022/11/01 06:03:48;;;;;;;;;;;15.00;95.60;;;;;;4988576;28;19925;-67
2022/11/01 06:06:14;;;;;;;;;;;15.00;95.60;;;;;;4989207;28;20006;-67
2022/11/01 06:08:39;;;;;;;;;;;15.00;95.70;;;;;;4988358;28;20013;-67
2022/11/01 06:11:05;;;;;;;;;;;15.00;95.60;;;;;;4985467;28;19925;-68
2022/11/01 06:13:31;;;;;;;;;;;15.00;95.60;;;;;;5007813;28;19913;-68
2022/11/01 06:16:03;;;;;;;;;;;15.00;95.60;;;;;;5008168;28;20653;-68
2022/11/01 06:18:29;;;;;;;;;;;15.00;95.60;;;;;;5000987;28;19918;-67
2022/11/01 06:20:55;;;;;;;;;;;15.00;95.70;;;;;;4987912;28;19969;-67
2022/11/01 06:23:21;;;;;;;;;;;15.00;95.70;;;;;;4988249;28;19933;-67
2022/11/01 06:25:46;;;;;;;;;;;15.00;95.70;;;;;;4987913;28;19914;-67
2022/11/01 06:28:12;;;;;;;;;;;15.00;95.60;;;;;;4988288;28;19914;-67
2022/11/01 06:30:37;;;;;;;;;;;15.00;95.60;;;;;;4987363;28;20553;-67
2022/11/01 06:33:05;;;;;;;;;;;15.00;95.60;;;;;;4988982;28;19925;-68
2022/11/01 06:35:31;;;;;;;;;;;15.00;95.60;;;;;;4988171;28;19924;-67
2022/11/01 06:38:03;;;;;;;;;;;15.00;95.60;;;;;;4987961;28;19914;-67
2022/11/01 06:40:29;;;;;;;;;;;15.00;95.70;;;;;;4986533;28;19920;-67
2022/11/01 06:42:58;;;;;;;;;;;15.00;95.60;;;;;;5003017;28;19914;-67
2022/11/01 06:45:24;;;;;;;;;;;15.00;95.60;;;;;;5007839;28;19917;-67
2022/11/01 06:47:49;;;;;;;;;;;15.00;95.60;;;;;;5007774;28;20391;-67
2022/11/01 06:50:15;;;;;;;;;;;15.00;95.60;;;;;;4997661;28;19937;-67
2022/11/01 06:52:41;;;;;;;;;;;15.00;95.50;;;;;;4986940;28;19933;-67
2022/11/01 06:55:06;;;;;;;;;;;15.00;95.50;;;;;;4987816;28;19924;-67
2022/11/01 06:57:32;;;;;;;;;;;15.00;95.50;;;;;;4986528;28;20263;-67
2022/11/01 06:59:57;;;;;;;;;;;15.00;95.60;;;;;;4993659;28;20715;-68
2022/11/01 07:02:24;;;;;;;;;;;15.10;95.60;;;;;;4995580;28;19918;-68
2022/11/01 07:04:50;;;;;;;;;;;15.10;95.60;;;;;;4998321;28;19921;-67
2022/11/01 07:07:15;;;;;;;;;;;15.00;95.50;;;;;;4993530;28;19968;-67
2022/11/01 07:09:41;;;;;;;;;;;15.00;95.50;;;;;;4995077;28;19967;-67
2022/11/01 07:12:07;;;;;;;;;;;15.00;95.50;;;;;;4995410;28;20004;-67
2022/11/01 07:14:32;;;;;;;;;;;15.00;95.40;;;;;;5001801;28;19913;-67
2022/11/01 07:16:58;;;;;;;;;;;15.00;95.50;;;;;;5006235;28;20367;-67
2022/11/01 07:19:23;;;;;;;;;;;15.00;95.50;;;;;;5005697;28;19996;-67
2022/11/01 07:21:49;;;;;;;;;;;15.00;95.40;;;;;;5006120;28;20000;-67
2022/11/01 07:24:14;;;;;;;;;;;15.00;95.40;;;;;;5005484;28;20267;-67
2022/11/01 07:26:40;;;;;;;;;;;15.00;95.30;;;;;;4986427;28;19980;-67
2022/11/01 07:29:05;;;;;;;;;;;14.90;95.30;;;;;;4984112;28;19933;-67
2022/11/01 07:31:32;;;;;;;;;;;14.90;95.20;;;;;;4984389;28;19972;-67
2022/11/01 07:33:58;;;;;;;;;;;14.90;95.20;;;;;;4985875;28;19913;-67
2022/11/01 07:36:24;;;;;;;;;;;14.90;95.10;;;;;;4985471;28;20359;-67
2022/11/01 07:38:49;;;;;;;;;;;14.80;94.90;;;;;;4985645;28;19960;-67
2022/11/01 07:41:14;;;;;;;;;;;14.80;95.00;;;;;;4980228;28;19918;-67
2022/11/01 07:43:40;;;;;;;;;;;14.80;95.00;;;;;;4984833;28;20616;-67
2022/11/01 07:46:06;;;;;;;;;;;14.80;95.00;;;;;;4983647;28;19914;-67
2022/11/01 07:48:31;;;;;;;;;;;14.80;95.00;;;;;;4984208;28;19914;-67
2022/11/01 07:50:57;;;;;;;;;;;14.80;95.00;;;;;;4984897;28;20635;-66
2022/11/01 07:53:22;;;;;;;;;;;14.80;95.00;;;;;;4985921;28;19914;-67
2022/11/01 07:55:48;;;;;;;;;;;14.70;94.90;;;;;;4985738;28;19968;-67
2022/11/01 07:58:14;;;;;;;;;;;14.70;94.80;;;;;;4985779;28;19918;-67
2022/11/01 08:00:40;;;;;;;;;;;14.70;94.90;;;;;;4984748;28;19968;-67
2022/11/01 08:03:11;;;;;;;;;;;14.70;94.90;;;;;;4997095;28;19921;-66
2022/11/01 08:05:37;;;;;;;;;;;14.70;94.80;;;;;;4982100;28;20552;-67
2022/11/01 08:08:02;;;;;;;;;;;14.70;94.80;;;;;;4985696;28;19913;-67
2022/11/01 08:10:28;;;;;;;;;;;14.70;94.80;;;;;;4985108;28;19921;-67
2022/11/01 08:13:20;;;;;;;;;;;14.70;94.70;;;;;;5000134;28;19995;-67
2022/11/01 08:15:46;;;;;;;;;;;14.70;94.60;;;;;;4988674;28;19937;-67
2022/11/01 08:18:11;;;;;;;;;;;14.70;94.70;;;;;;4985482;28;19909;-67
2022/11/01 08:20:37;;;;;;;;;;;14.70;94.70;;;;;;4985066;28;19917;-67
2022/11/01 08:23:03;;;;;;;;;;;14.60;94.70;;;;;;4984861;28;19920;-67
2022/11/01 08:25:29;;;;;;;;;;;14.60;94.60;;;;;;4985387;28;19914;-67
2022/11/01 08:27:59;;;;;;;;;;;14.60;94.60;;;;;;4985305;28;20466;-67
2022/11/01 08:30:24;;;;;;;;;;;14.60;94.50;;;;;;4984420;28;19971;-67
2022/11/01 08:32:55;;;;;;;;;;;14.60;94.60;;;;;;4984873;28;19918;-67
2022/11/01 08:35:21;;;;;;;;;;;14.60;94.60;;;;;;4985153;28;19964;-67
2022/11/01 08:37:50;;;;;;;;;;;14.60;94.50;;;;;;4985124;28;20000;-67
2022/11/01 08:40:16;;;;;;;;;;;14.60;94.30;;;;;;4984344;28;19925;-67
2022/11/01 08:42:41;;;;;;;;;;;14.60;94.30;;;;;;4996718;28;19913;-67
2022/11/01 08:45:07;;;;;;;;;;;14.60;94.40;;;;;;5004930;28;19920;-67
2022/11/01 08:47:32;;;;;;;;;;;14.60;94.30;;;;;;5000898;28;19917;-66
2022/11/01 08:49:58;;;;;;;;;;;14.60;94.40;;;;;;4983967;28;20685;-67
2022/11/01 08:52:24;;;;;;;;;;;14.60;93.80;;;;;;4983190;28;19918;-67
2022/11/01 08:54:50;;;;;;;;;;;14.60;94.00;;;;;;4982190;28;19914;-67
2022/11/01 08:57:15;;;;;;;;;;;14.60;94.20;;;;;;4983397;28;20606;-66
2022/11/01 08:59:41;;;;;;;;;;;14.60;94.00;;;;;;4982146;28;19917;-67
2022/11/01 09:02:09;;;;;;;;;;;14.60;94.10;;;;;;4983996;28;20286;-68
2022/11/01 09:04:35;;;;;;;;;;;14.60;94.00;;;;;;4987027;28;20005;-67
2022/11/01 09:07:00;;;;;;;;;;;14.60;94.10;;;;;;4988177;28;19914;-67
2022/11/01 09:09:26;;;;;;;;;;;14.60;94.00;;;;;;4987203;28;19930;-67
2022/11/01 09:11:52;;;;;;;;;;;14.60;93.70;;;;;;4987887;28;20041;-67
2022/11/01 09:14:19;;;;;;;;;;;14.60;93.90;;;;;;4996223;28;19917;-67
2022/11/01 09:16:44;;;;;;;;;;;14.50;94.10;;;;;;4988607;28;19914;-67
2022/11/01 09:19:10;;;;;;;;;;;14.50;93.70;;;;;;4988725;28;19968;-67
2022/11/01 09:21:35;;;;;;;;;;;14.50;93.70;;;;;;4988071;28;20371;-66
2022/11/01 09:24:01;;;;;;;;;;;14.50;93.40;;;;;;4988531;28;19999;-67
2022/11/01 09:26:26;;;;;;;;;;;14.50;93.60;;;;;;4988216;28;19960;-67
2022/11/01 09:28:53;;;;;;;;;;;14.50;93.30;;;;;;4988523;28;19913;-67
2022/11/01 09:31:19;;;;;;;;;;;14.50;93.80;;;;;;4987671;28;19926;-67
2022/11/01 09:33:44;;;;;;;;;;;14.50;93.00;;;;;;4988331;28;19977;-67
2022/11/01 09:36:10;;;;;;;;;;;14.50;93.50;;;;;;4988662;28;19914;-67
2022/11/01 09:38:35;;;;;;;;;;;14.50;93.40;;;;;;4986961;28;20379;-67
2022/11/01 09:41:14;;;;;;;;;;;14.50;93.50;;;;;;4981359;28;19932;-67
2022/11/01 09:43:42;;;;;;;;;;;14.50;92.70;;;;;;4990907;28;19914;-67
2022/11/01 09:46:11;;;;;;;;;;;14.50;93.30;;;;;;4984450;28;19924;-67
2022/11/01 09:48:36;;;;;;;;;;;14.50;93.10;;;;;;4996084;28;19988;-67
2022/11/01 09:51:03;;;;;;;;;;;14.50;93.40;;;;;;4989417;28;19918;-67
2022/11/01 09:53:29;;;;;;;;;;;14.50;92.60;;;;;;4987580;28;19914;-67
2022/11/01 09:55:55;;;;;;;;;;;14.50;92.80;;;;;;4988094;28;19921;-67
2022/11/01 09:58:46;;;;;;;;;;;14.50;93.20;;;;;;4984969;28;19914;-67
2022/11/01 10:01:33;;;;;;;;;;;14.60;93.00;;;;;;4984217;28;20403;-66
2022/11/01 10:04:05;;;;;;;;;;;14.60;93.10;;;;;;4987256;28;19918;-67
2022/11/01 10:06:34;;;;;;;;;;;14.50;92.90;;;;;;4981099;28;20032;-67
2022/11/01 10:09:00;;;;;;;;;;;14.60;92.90;;;;;;5004326;28;19921;-67
2022/11/01 10:11:36;;;;;;;;;;;14.50;92.60;;;;;;5000815;28;19948;-67
2022/11/01 10:14:20;;;;;;;;;;;14.60;92.70;;;;;;5006668;28;19921;-67
2022/11/01 10:17:04;;;;;;;;;;;14.60;92.80;;;;;;5007349;28;19952;-67
2022/11/01 10:19:32;;;;;;;;;;;14.60;92.40;;;;;;5001353;28;19941;-67
2022/11/01 10:22:02;;;;;;;;;;;14.60;92.90;;;;;;4987200;28;19918;-67
2022/11/01 10:24:34;;;;;;;;;;;14.60;92.40;;;;;;4987373;28;19914;-67
2022/11/01 10:27:17;;;;;;;;;;;14.60;92.20;;;;;;4987185;28;19913;-67
2022/11/01 10:29:48;;;;;;;;;;;14.60;92.40;;;;;;4986745;28;20054;-67
2022/11/01 10:32:32;;;;;;;;;;;14.60;92.10;;;;;;4987692;28;19918;-67
2022/11/01 10:35:00;;;;;;;;;;;14.60;92.10;;;;;;4987189;28;19920;-67
2022/11/01 10:37:27;;;;;;;;;;;14.70;92.60;;;;;;4987011;28;19988;-67
2022/11/01 10:39:55;;;;;;;;;;;14.70;92.20;;;;;;4986398;28;20383;-67
2022/11/01 10:42:20;;;;;;;;;;;14.70;91.70;;;;;;4997277;28;19949;-67
2022/11/01 10:44:53;;;;;;;;;;;14.70;92.00;;;;;;5005080;28;20389;-67
2022/11/01 10:47:19;;;;;;;;;;;14.70;92.40;;;;;;5005945;28;19940;-66
2022/11/01 10:49:48;;;;;;;;;;;14.80;92.10;;;;;;5002219;28;19981;-67
2022/11/01 10:52:16;;;;;;;;;;;14.80;92.30;;;;;;4986825;28;20454;-67
2022/11/01 10:54:42;;;;;;;;;;;14.80;92.10;;;;;;4986862;28;19996;-67
2022/11/01 10:57:22;;;;;;;;;;;14.80;91.80;;;;;;4986705;28;19949;-67
2022/11/01 10:59:48;;;;;;;;;;;14.80;91.30;;;;;;4986680;28;19910;-67
2022/11/01 11:02:22;;;;;;;;;;;14.80;92.00;;;;;;4986904;28;19921;-67
2022/11/01 11:04:48;;;;;;;;;;;14.80;91.20;;;;;;4986506;28;20005;-67
2022/11/01 11:07:15;;;;;;;;;;;14.90;92.10;;;;;;4986523;28;19918;-66
2022/11/01 11:09:41;;;;;;;;;;;14.90;92.10;;;;;;4986167;28;19928;-67
2022/11/01 11:12:12;;;;;;;;;;;14.90;92.20;;;;;;4994574;28;19917;-67
2022/11/01 11:14:38;;;;;;;;;;;14.90;92.10;;;;;;5005307;28;19913;-67
2022/11/01 11:17:09;;;;;;;;;;;15.00;91.90;;;;;;5006016;28;19949;-67
2022/11/01 11:19:37;;;;;;;;;;;15.00;91.50;;;;;;5006127;28;19913;-67
2022/11/01 11:22:05;;;;;;;;;;;15.00;92.20;;;;;;5006180;28;20530;-67
2022/11/01 11:24:33;;;;;;;;;;;15.00;91.70;;;;;;4999413;28;19964;-67
2022/11/01 11:27:00;;;;;;;;;;;15.00;91.10;;;;;;4985261;28;19963;-67
2022/11/01 11:29:28;;;;;;;;;;;15.00;91.60;;;;;;4985279;28;19918;-67
2022/11/01 11:31:55;;;;;;;;;;;15.10;91.10;;;;;;4986134;28;19918;-67
2022/11/01 11:34:23;;;;;;;;;;;15.10;91.90;;;;;;4985299;28;20260;-67
2022/11/01 11:36:50;;;;;;;;;;;15.10;91.50;;;;;;4992826;28;20631;-67
2022/11/01 11:39:26;;;;;;;;;;;15.10;92.00;;;;;;5005232;28;19957;-67
2022/11/01 11:41:52;;;;;;;;;;;15.20;91.90;;;;;;4999294;28;20260;-68
2022/11/01 11:44:33;;;;;;;;;;;15.20;91.60;;;;;;5005489;28;19999;-67
2022/11/01 11:46:58;;;;;;;;;;;15.20;91.00;;;;;;5005557;28;20565;-67
2022/11/01 11:49:25;;;;;;;;;;;15.30;91.90;;;;;;5000918;28;19918;-67
2022/11/01 11:51:51;;;;;;;;;;;15.30;91.80;;;;;;4982530;28;20036;-67
2022/11/01 11:54:20;;;;;;;;;;;15.30;91.60;;;;;;4985611;28;20099;-67
2022/11/01 11:56:46;;;;;;;;;;;15.40;91.60;;;;;;4985829;28;19948;-67
2022/11/01 11:59:18;;;;;;;;;;;15.40;91.90;;;;;;4985361;28;20386;-67
2022/11/01 12:01:44;;;;;;;;;;;15.40;91.70;;;;;;4985004;28;19914;-67
2022/11/01 12:04:15;;;;;;;;;;;15.50;91.90;;;;;;4985805;28;20579;-68
2022/11/01 12:06:42;;;;;;;;;;;15.50;91.50;;;;;;4985055;28;19914;-67
2022/11/01 12:09:27;;;;;;;;;;;15.50;91.60;;;;;;4985199;28;20455;-68
2022/11/01 12:11:53;;;;;;;;;;;15.50;91.20;;;;;;4990148;28;19925;-67
2022/11/01 12:14:21;;;;;;;;;;;15.60;91.40;;;;;;4987168;28;19917;-67
2022/11/01 12:16:46;;;;;;;;;;;15.60;91.00;;;;;;4985344;28;19914;-67
2022/11/01 12:19:25;;;;;;;;;;;15.60;90.90;;;;;;4983386;28;19925;-66
2022/11/01 12:21:51;;;;;;;;;;;15.70;91.30;;;;;;4983780;28;20607;-67
2022/11/01 12:24:29;;;;;;;;;;;15.70;91.50;;;;;;4985121;28;19914;-67
2022/11/01 12:26:56;;;;;;;;;;;15.70;91.70;;;;;;4987682;28;20410;-66
2022/11/01 12:29:28;;;;;;;;;;;15.70;91.70;;;;;;4993354;28;20329;-66
2022/11/01 12:31:55;;;;;;;;;;;15.70;91.40;;;;;;4985471;28;19921;-66
2022/11/01 12:34:26;;;;;;;;;;;15.80;91.80;;;;;;4985149;28;20573;-67
2022/11/01 12:37:11;;;;;;;;;;;15.80;91.70;;;;;;4985177;28;20366;-67
2022/11/01 12:39:42;;;;;;;;;;;15.80;91.80;;;;;;4984888;28;19963;-67
2022/11/01 12:42:10;;;;;;;;;;;15.80;91.50;;;;;;4994034;28;20030;-67
2022/11/01 12:44:37;;;;;;;;;;;15.80;91.60;;;;;;5004279;28;19917;-67
2022/11/01 12:47:03;;;;;;;;;;;15.90;91.40;;;;;;5004641;28;20416;-67
2022/11/01 12:49:35;;;;;;;;;;;15.90;91.60;;;;;;5002414;28;19913;-67
2022/11/01 12:52:15;;;;;;;;;;;15.90;91.20;;;;;;4982616;28;19921;-67
2022/11/01 12:54:45;;;;;;;;;;;15.90;91.10;;;;;;4982863;28;19917;-67
2022/11/01 12:57:13;;;;;;;;;;;15.90;91.50;;;;;;4983265;28;20533;-66
2022/11/01 12:59:38;;;;;;;;;;;16.00;91.80;;;;;;4984413;28;19921;-67
2022/11/01 13:02:07;;;;;;;;;;;16.00;90.30;;;;;;4984866;28;19914;-67
2022/11/01 13:04:41;;;;;;;;;;;15.90;91.70;;;;;;4984576;28;19918;-67
2022/11/01 13:07:12;;;;;;;;;;;16.00;91.60;;;;;;4984542;28;20059;-67
2022/11/01 13:09:41;;;;;;;;;;;16.00;91.80;;;;;;4983360;28;19922;-67
2022/11/01 13:12:24;;;;;;;;;;;16.00;91.80;;;;;;4992274;28;20008;-67
2022/11/01 13:15:10;;;;;;;;;;;16.00;91.90;;;;;;5004392;28;20366;-66
2022/11/01 13:17:56;;;;;;;;;;;16.00;91.70;;;;;;5004137;28;19913;-67
2022/11/01 13:20:24;;;;;;;;;;;16.00;92.00;;;;;;5003369;28;19917;-66
2022/11/01 13:22:50;;;;;;;;;;;16.10;91.10;;;;;;4990765;28;19913;-67
2022/11/01 13:25:22;;;;;;;;;;;16.10;92.10;;;;;;4983889;28;19914;-67
2022/11/01 13:28:02;;;;;;;;;;;16.00;91.50;;;;;;4983797;28;20040;-67
2022/11/01 13:30:29;;;;;;;;;;;16.10;91.90;;;;;;4974203;28;19925;-67
2022/11/01 13:32:58;;;;;;;;;;;16.10;90.90;;;;;;4984550;28;19914;-67
2022/11/01 13:35:49;;;;;;;;;;;16.00;92.00;;;;;;4984753;28;19914;-67
2022/11/01 13:38:16;;;;;;;;;;;16.00;92.00;;;;;;4983793;28;20407;-67
2022/11/01 13:40:44;;;;;;;;;;;16.10;92.00;;;;;;4980526;28;19921;-67
2022/11/01 13:43:12;;;;;;;;;;;16.10;92.00;;;;;;4988110;28;19914;-66
2022/11/01 13:45:54;;;;;;;;;;;16.10;92.00;;;;;;4984034;28;20441;-67
2022/11/01 13:48:38;;;;;;;;;;;16.00;92.00;;;;;;4982828;28;20750;-67
2022/11/01 13:51:22;;;;;;;;;;;16.00;91.60;;;;;;4985758;28;19918;-66
2022/11/01 13:53:53;;;;;;;;;;;16.10;92.00;;;;;;4988060;28;19920;-67
2022/11/01 13:56:38;;;;;;;;;;;16.10;92.30;;;;;;4988559;28;20529;-67
2022/11/01 13:59:22;;;;;;;;;;;16.10;91.60;;;;;;4977296;28;19953;-67
2022/11/01 14:01:49;;;;;;;;;;;16.00;91.90;;;;;;4975203;28;19921;-67
2022/11/01 14:04:14;;;;;;;;;;;16.00;91.70;;;;;;4988466;28;19953;-67
2022/11/01 14:06:41;;;;;;;;;;;16.00;91.90;;;;;;4988291;28;20702;-67
2022/11/01 14:09:24;;;;;;;;;;;16.00;92.00;;;;;;4988793;28;19921;-67
2022/11/01 14:11:53;;;;;;;;;;;15.90;91.80;;;;;;4994819;28;19917;-67
2022/11/01 14:14:39;;;;;;;;;;;16.00;91.70;;;;;;5008427;28;19913;-67
2022/11/01 14:17:23;;;;;;;;;;;15.90;90.80;;;;;;4987164;28;19925;-67
2022/11/01 14:19:57;;;;;;;;;;;15.90;91.70;;;;;;4988448;28;19914;-67
2022/11/01 14:22:26;;;;;;;;;;;15.90;92.20;;;;;;4988544;28;19910;-66
2022/11/01 14:24:55;;;;;;;;;;;15.80;92.20;;;;;;4988323;28;19921;-67
2022/11/01 14:27:42;;;;;;;;;;;15.80;91.40;;;;;;4988319;28;19932;-67